createdAt,value
2016-02-20T00:00:55.436Z,998
2016-02-20T00:01:55.439Z,998
2016-02-20T00:02:55.441Z,998
2016-02-20T00:03:55.428Z,997.98
2016-02-20T00:04:55.403Z,998.03
2016-02-20T00:05:55.400Z,998.1
2016-02-20T00:06:55.387Z,998.03
2016-02-20T00:07:55.389Z,997.99
2016-02-20T00:08:55.377Z,998.03
2016-02-20T00:09:55.380Z,998
2016-02-20T00:10:55.367Z,998.05
2016-02-20T00:11:55.369Z,997.99
2016-02-20T00:12:55.357Z,998.08
2016-02-20T00:13:55.360Z,998.08
2016-02-20T00:14:55.346Z,998.03
2016-02-20T00:15:55.349Z,998.14
2016-02-20T00:16:55.336Z,998.11
2016-02-20T00:17:55.339Z,998.09
2016-02-20T00:18:55.341Z,998.12
2016-02-20T00:19:55.329Z,998.08
2016-02-20T00:20:55.316Z,998.05
2016-02-20T00:21:55.319Z,998.09
2016-02-20T00:22:55.321Z,998.07
2016-02-20T00:23:55.308Z,998.13
2016-02-20T00:24:55.295Z,998.13
2016-02-20T00:25:55.298Z,998.13
2016-02-20T00:26:55.284Z,998.15
2016-02-20T00:27:55.288Z,998.11
2016-02-20T00:28:55.275Z,998.14
2016-02-20T00:29:55.278Z,998.08
2016-02-20T00:30:55.270Z,998.13
2016-02-20T00:31:55.273Z,998.11
2016-02-20T00:32:55.259Z,998.15
2016-02-20T00:33:55.262Z,998.13
2016-02-20T00:34:55.247Z,998.08
2016-02-20T00:35:55.250Z,998.13
2016-02-20T00:36:55.236Z,998.14
2016-02-20T00:37:55.238Z,998.11
2016-02-20T00:38:55.241Z,998.13
2016-02-20T00:39:55.228Z,998.16
2016-02-20T00:40:55.216Z,998.2
2016-02-20T00:41:55.218Z,998.16
2016-02-20T00:42:55.205Z,998.09
2016-02-20T00:43:55.208Z,998.19
2016-02-20T00:44:55.195Z,998.14
2016-02-20T00:45:55.197Z,998.17
2016-02-20T00:46:55.185Z,998.09
2016-02-20T00:47:55.187Z,998.11
2016-02-20T00:48:55.175Z,998.12
2016-02-20T00:49:55.177Z,998.11
2016-02-20T00:50:55.164Z,998.08
2016-02-20T00:51:55.167Z,998.04
2016-02-20T00:52:55.154Z,998.01
2016-02-20T00:53:55.156Z,998.06
2016-02-20T00:54:55.159Z,998.01
2016-02-20T00:55:55.147Z,998.02
2016-02-20T00:56:55.134Z,998.05
2016-02-20T00:57:55.137Z,998.05
2016-02-20T00:58:55.123Z,998.05
2016-02-20T00:59:55.126Z,998.02
2016-02-20T01:00:55.112Z,998
2016-02-20T01:01:55.115Z,997.94
2016-02-20T01:02:55.103Z,997.95
2016-02-20T01:03:55.105Z,997.98
2016-02-20T01:04:55.093Z,997.98
2016-02-20T01:05:55.095Z,997.93
2016-02-20T01:06:55.082Z,997.88
2016-02-20T01:07:55.086Z,997.86
2016-02-20T01:08:55.072Z,997.8
2016-02-20T01:09:55.074Z,997.85
2016-02-20T01:10:55.062Z,997.81
2016-02-20T01:11:55.049Z,997.83
2016-02-20T01:12:55.052Z,997.8
2016-02-20T01:13:55.055Z,997.76
2016-02-20T01:14:55.042Z,997.77
2016-02-20T01:15:55.028Z,997.74
2016-02-20T01:16:55.030Z,997.66
2016-02-20T01:17:55.033Z,997.67
2016-02-20T01:18:55.022Z,997.68
2016-02-20T01:19:55.008Z,997.66
2016-02-20T01:20:55.031Z,997.65
2016-02-20T01:21:55.002Z,997.61
2016-02-20T01:22:54.990Z,997.63
2016-02-20T01:23:54.993Z,997.68
2016-02-20T01:24:54.980Z,997.6
2016-02-20T01:25:54.982Z,997.64
2016-02-20T01:26:54.969Z,997.65
2016-02-20T01:27:54.972Z,997.68
2016-02-20T01:28:54.959Z,997.6
2016-02-20T01:29:54.962Z,997.63
2016-02-20T01:30:54.948Z,997.62
2016-02-20T01:31:54.936Z,997.56
2016-02-20T01:32:54.939Z,997.59
2016-02-20T01:33:54.925Z,997.61
2016-02-20T01:34:54.928Z,997.62
2016-02-20T01:35:54.914Z,997.62
2016-02-20T01:36:54.917Z,997.63
2016-02-20T01:37:54.905Z,997.61
2016-02-20T01:38:54.908Z,997.57
2016-02-20T01:39:54.895Z,997.61
2016-02-20T01:40:54.898Z,997.63
2016-02-20T01:41:54.885Z,997.72
2016-02-20T01:42:54.872Z,997.7
2016-02-20T01:43:54.874Z,997.68
2016-02-20T01:44:54.861Z,997.59
2016-02-20T01:45:54.863Z,997.6
2016-02-20T01:46:54.851Z,997.51
2016-02-20T01:47:54.854Z,997.57
2016-02-20T01:48:54.857Z,997.59
2016-02-20T01:49:54.843Z,997.55
2016-02-20T01:50:54.830Z,997.59
2016-02-20T01:51:54.833Z,997.57
2016-02-20T01:52:54.820Z,997.52
2016-02-20T01:53:54.807Z,997.51
2016-02-20T01:54:54.810Z,997.53
2016-02-20T01:55:54.798Z,997.5
2016-02-20T01:56:54.800Z,997.52
2016-02-20T01:57:54.803Z,997.47
2016-02-20T01:58:54.790Z,997.56
2016-02-20T01:59:54.776Z,997.44
2016-02-20T02:00:54.779Z,997.49
2016-02-20T02:01:54.766Z,997.45
2016-02-20T02:02:54.770Z,997.42
2016-02-20T02:03:54.756Z,997.43
2016-02-20T02:04:54.756Z,997.4
2016-02-20T02:05:54.743Z,997.41
2016-02-20T02:06:54.746Z,997.35
2016-02-20T02:07:54.733Z,997.34
2016-02-20T02:08:54.735Z,997.27
2016-02-20T02:09:54.722Z,997.25
2016-02-20T02:10:54.725Z,997.23
2016-02-20T02:11:54.713Z,997.21
2016-02-20T02:12:54.700Z,997.15
2016-02-20T02:13:54.702Z,997.12
2016-02-20T02:14:54.689Z,997.12
2016-02-20T02:15:54.692Z,997.11
2016-02-20T02:16:54.679Z,997.12
2016-02-20T02:17:54.682Z,997.1
2016-02-20T02:18:54.668Z,997.11
2016-02-20T02:19:54.655Z,997.11
2016-02-20T02:20:54.658Z,997.13
2016-02-20T02:21:54.646Z,997.09
2016-02-20T02:22:54.648Z,997.09
2016-02-20T02:23:54.635Z,997.07
2016-02-20T02:24:54.638Z,997.02
2016-02-20T02:25:54.640Z,997.06
2016-02-20T02:26:54.628Z,996.99
2016-02-20T02:27:54.615Z,996.96
2016-02-20T02:28:54.617Z,996.93
2016-02-20T02:29:54.604Z,996.94
2016-02-20T02:30:54.607Z,996.92
2016-02-20T02:31:54.594Z,996.95
2016-02-20T02:32:54.581Z,996.92
2016-02-20T02:33:54.584Z,996.8
2016-02-20T02:34:54.571Z,996.87
2016-02-20T02:35:54.573Z,996.86
2016-02-20T02:36:54.561Z,996.87
2016-02-20T02:37:54.563Z,996.88
2016-02-20T02:38:54.550Z,996.77
2016-02-20T02:39:54.553Z,996.81
2016-02-20T02:40:54.540Z,996.81
2016-02-20T02:41:54.527Z,996.8
2016-02-20T02:42:54.530Z,996.84
2016-02-20T02:43:54.517Z,996.81
2016-02-20T02:44:54.520Z,996.83
2016-02-20T02:45:54.522Z,996.82
2016-02-20T02:46:54.510Z,996.86
2016-02-20T02:47:54.496Z,996.85
2016-02-20T02:48:54.499Z,996.88
2016-02-20T02:49:54.486Z,996.91
2016-02-20T02:50:54.488Z,996.9
2016-02-20T02:51:54.476Z,996.92
2016-02-20T02:52:54.479Z,996.95
2016-02-20T02:53:54.465Z,996.94
2016-02-20T02:54:54.454Z,996.93
2016-02-20T02:55:54.456Z,996.91
2016-02-20T02:56:54.443Z,996.87
2016-02-20T02:57:54.446Z,996.93
2016-02-20T02:58:54.448Z,996.95
2016-02-20T02:59:54.435Z,996.88
2016-02-20T03:00:54.423Z,996.87
2016-02-20T03:01:54.426Z,996.88
2016-02-20T03:02:54.428Z,996.8
2016-02-20T03:03:54.414Z,996.82
2016-02-20T03:04:54.401Z,996.83
2016-02-20T03:05:54.389Z,996.86
2016-02-20T03:06:54.391Z,996.8
2016-02-20T03:07:54.379Z,996.82
2016-02-20T03:08:54.381Z,996.8
2016-02-20T03:09:54.369Z,996.74
2016-02-20T03:10:54.371Z,996.67
2016-02-20T03:11:54.374Z,996.64
2016-02-20T03:12:54.361Z,996.73
2016-02-20T03:13:54.347Z,996.7
2016-02-20T03:14:54.351Z,996.75
2016-02-20T03:15:54.337Z,996.7
2016-02-20T03:16:54.341Z,996.71
2016-02-20T03:17:54.327Z,996.77
2016-02-20T03:18:54.330Z,996.81
2016-02-20T03:19:54.316Z,996.8
2016-02-20T03:20:54.319Z,996.81
2016-02-20T03:21:54.307Z,996.8
2016-02-20T03:22:54.309Z,996.75
2016-02-20T03:23:54.296Z,996.81
2016-02-20T03:24:54.285Z,996.84
2016-02-20T03:25:54.287Z,996.75
2016-02-20T03:26:54.274Z,996.79
2016-02-20T03:27:54.277Z,996.8
2016-02-20T03:28:54.279Z,996.83
2016-02-20T03:29:54.265Z,996.91
2016-02-20T03:30:54.269Z,996.86
2016-02-20T03:31:54.255Z,996.84
2016-02-20T03:32:54.242Z,996.75
2016-02-20T03:33:54.245Z,996.79
2016-02-20T03:34:54.232Z,996.8
2016-02-20T03:35:54.235Z,996.82
2016-02-20T03:36:54.223Z,996.8
2016-02-20T03:37:54.225Z,996.84
2016-02-20T03:38:54.212Z,996.79
2016-02-20T03:39:54.214Z,996.8
2016-02-20T03:40:54.203Z,996.78
2016-02-20T03:41:54.189Z,996.75
2016-02-20T03:42:54.208Z,996.81
2016-02-20T03:43:54.194Z,996.8
2016-02-20T03:44:54.181Z,996.81
2016-02-20T03:45:54.184Z,996.83
2016-02-20T03:46:54.171Z,996.79
2016-02-20T03:47:54.158Z,996.85
2016-02-20T03:48:54.192Z,996.85
2016-02-20T03:49:54.148Z,996.82
2016-02-20T03:50:54.666Z,996.81
2016-02-20T03:51:54.137Z,996.82
2016-02-20T03:52:54.141Z,996.83
2016-02-20T03:53:54.143Z,996.86
2016-02-20T03:54:54.130Z,996.93
2016-02-20T03:55:54.118Z,996.87
2016-02-20T03:56:54.120Z,996.84
2016-02-20T03:57:54.107Z,996.83
2016-02-20T03:58:54.109Z,996.78
2016-02-20T03:59:54.096Z,996.81
2016-02-20T04:00:54.084Z,996.84
2016-02-20T04:01:54.087Z,996.78
2016-02-20T04:02:54.090Z,996.84
2016-02-20T04:03:54.076Z,996.84
2016-02-20T04:04:54.063Z,996.88
2016-02-20T04:05:54.065Z,996.87
2016-02-20T04:06:54.068Z,996.88
2016-02-20T04:07:54.056Z,996.84
2016-02-20T04:08:54.059Z,996.84
2016-02-20T04:09:54.046Z,996.79
2016-02-20T04:10:54.033Z,996.82
2016-02-20T04:11:54.036Z,996.85
2016-02-20T04:12:54.022Z,996.82
2016-02-20T04:13:54.025Z,996.84
2016-02-20T04:14:54.028Z,996.79
2016-02-20T04:15:54.014Z,996.8
2016-02-20T04:16:54.002Z,996.82
2016-02-20T04:17:54.005Z,996.82
2016-02-20T04:18:53.992Z,996.84
2016-02-20T04:19:53.994Z,996.91
2016-02-20T04:20:53.997Z,996.82
2016-02-20T04:21:53.984Z,996.78
2016-02-20T04:22:53.971Z,996.75
2016-02-20T04:23:53.958Z,996.77
2016-02-20T04:24:53.961Z,996.69
2016-02-20T04:25:53.963Z,996.7
2016-02-20T04:26:53.951Z,996.67
2016-02-20T04:27:53.953Z,996.7
2016-02-20T04:28:53.941Z,996.61
2016-02-20T04:29:53.943Z,996.65
2016-02-20T04:30:53.930Z,996.69
2016-02-20T04:31:53.917Z,996.61
2016-02-20T04:32:53.920Z,996.57
2016-02-20T04:33:53.907Z,996.52
2016-02-20T04:34:53.910Z,996.43
2016-02-20T04:35:53.896Z,996.48
2016-02-20T04:36:53.899Z,996.39
2016-02-20T04:37:53.901Z,996.42
2016-02-20T04:38:53.905Z,996.46
2016-02-20T04:39:53.892Z,996.44
2016-02-20T04:40:53.879Z,996.36
2016-02-20T04:41:53.867Z,996.34
2016-02-20T04:42:53.869Z,996.34
2016-02-20T04:43:53.856Z,996.34
2016-02-20T04:44:53.859Z,996.3
2016-02-20T04:45:53.846Z,996.39
2016-02-20T04:46:53.848Z,996.43
2016-02-20T04:47:53.835Z,996.32
2016-02-20T04:48:53.839Z,996.37
2016-02-20T04:49:53.825Z,996.36
2016-02-20T04:50:53.828Z,996.3
2016-02-20T04:51:53.815Z,996.33
2016-02-20T04:52:53.817Z,996.3
2016-02-20T04:53:53.805Z,996.38
2016-02-20T04:54:53.807Z,996.32
2016-02-20T04:55:53.794Z,996.39
2016-02-20T04:56:53.797Z,996.35
2016-02-20T04:57:53.785Z,996.28
2016-02-20T04:58:53.787Z,996.3
2016-02-20T04:59:53.790Z,996.35
2016-02-20T05:00:53.777Z,996.35
2016-02-20T05:01:53.764Z,996.36
2016-02-20T05:02:53.766Z,996.28
2016-02-20T05:03:53.754Z,996.27
2016-02-20T05:04:53.757Z,996.29
2016-02-20T05:05:53.743Z,996.16
2016-02-20T05:06:53.746Z,996.21
2016-02-20T05:07:53.732Z,996.13
2016-02-20T05:08:53.720Z,996.16
2016-02-20T05:09:53.722Z,996.14
2016-02-20T05:10:53.725Z,996.16
2016-02-20T05:11:53.713Z,996.13
2016-02-20T05:12:53.715Z,996.11
2016-02-20T05:13:53.702Z,996.1
2016-02-20T05:14:53.706Z,996.05
2016-02-20T05:15:53.692Z,996.05
2016-02-20T05:16:53.695Z,996.02
2016-02-20T05:17:53.681Z,996
2016-02-20T05:18:53.684Z,996.02
2016-02-20T05:19:53.687Z,996.06
2016-02-20T05:20:53.674Z,996.05
2016-02-20T05:21:53.662Z,996.05
2016-02-20T05:22:53.664Z,996.09
2016-02-20T05:23:53.650Z,996.05
2016-02-20T05:24:53.654Z,996.04
2016-02-20T05:25:53.641Z,996.05
2016-02-20T05:26:53.644Z,996.06
2016-02-20T05:27:53.646Z,996.07
2016-02-20T05:28:53.633Z,996.02
2016-02-20T05:29:53.636Z,996.08
2016-02-20T05:30:53.623Z,996.02
2016-02-20T05:31:53.626Z,996
2016-02-20T05:32:53.613Z,995.96
2016-02-20T05:33:53.615Z,995.96
2016-02-20T05:34:53.602Z,996.03
2016-02-20T05:35:53.605Z,995.93
2016-02-20T05:36:53.592Z,995.96
2016-02-20T05:37:53.595Z,995.94
2016-02-20T05:38:53.582Z,995.93
2016-02-20T05:39:53.585Z,995.92
2016-02-20T05:40:53.571Z,995.88
2016-02-20T05:41:53.574Z,995.81
2016-02-20T05:42:53.562Z,995.86
2016-02-20T05:43:53.564Z,995.87
2016-02-20T05:44:53.567Z,995.79
2016-02-20T05:45:53.554Z,995.79
2016-02-20T05:46:53.556Z,995.81
2016-02-20T05:47:53.544Z,995.81
2016-02-20T05:48:53.546Z,995.83
2016-02-20T05:49:53.534Z,995.76
2016-02-20T05:50:53.536Z,995.77
2016-02-20T05:51:53.539Z,995.77
2016-02-20T05:52:53.526Z,995.72
2016-02-20T05:53:53.513Z,995.74
2016-02-20T05:54:53.516Z,995.72
2016-02-20T05:55:53.503Z,995.63
2016-02-20T05:56:53.506Z,995.64
2016-02-20T05:57:53.508Z,995.67
2016-02-20T05:58:53.494Z,995.6
2016-02-20T05:59:53.497Z,995.59
2016-02-20T06:00:53.485Z,995.58
2016-02-20T06:01:53.487Z,995.58
2016-02-20T06:02:53.475Z,995.64
2016-02-20T06:03:53.837Z,995.59
2016-02-20T06:04:53.465Z,995.58
2016-02-20T06:05:53.467Z,995.62
2016-02-20T06:06:53.470Z,995.54
2016-02-20T06:07:53.457Z,995.59
2016-02-20T06:08:53.459Z,995.54
2016-02-20T06:09:53.446Z,995.51
2016-02-20T06:10:53.449Z,995.53
2016-02-20T06:11:53.451Z,995.57
2016-02-20T06:12:53.440Z,995.54
2016-02-20T06:13:53.426Z,995.52
2016-02-20T06:14:53.429Z,995.46
2016-02-20T06:15:53.415Z,995.48
2016-02-20T06:16:53.418Z,995.42
2016-02-20T06:17:53.421Z,995.4
2016-02-20T06:18:53.423Z,995.39
2016-02-20T06:19:53.411Z,995.38
2016-02-20T06:20:53.398Z,995.42
2016-02-20T06:21:53.400Z,995.38
2016-02-20T06:22:53.388Z,995.34
2016-02-20T06:23:53.391Z,995.35
2016-02-20T06:24:53.378Z,995.44
2016-02-20T06:25:53.380Z,995.42
2016-02-20T06:26:53.383Z,995.36
2016-02-20T06:27:53.370Z,995.45
2016-02-20T06:28:53.372Z,995.44
2016-02-20T06:29:53.360Z,995.41
2016-02-20T06:30:53.363Z,995.42
2016-02-20T06:31:53.366Z,995.48
2016-02-20T06:32:53.352Z,995.42
2016-02-20T06:33:53.339Z,995.47
2016-02-20T06:34:53.341Z,995.5
2016-02-20T06:35:53.344Z,995.53
2016-02-20T06:36:53.331Z,995.53
2016-02-20T06:37:53.335Z,995.61
2016-02-20T06:38:53.321Z,995.58
2016-02-20T06:39:53.324Z,995.64
2016-02-20T06:40:53.311Z,995.62
2016-02-20T06:41:53.314Z,995.59
2016-02-20T06:42:53.317Z,995.53
2016-02-20T06:43:53.304Z,995.58
2016-02-20T06:44:53.307Z,995.57
2016-02-20T06:45:53.293Z,995.57
2016-02-20T06:46:53.295Z,995.58
2016-02-20T06:47:53.283Z,995.57
2016-02-20T06:48:53.286Z,995.59
2016-02-20T06:49:53.289Z,995.59
2016-02-20T06:50:53.275Z,995.56
2016-02-20T06:51:53.278Z,995.5
2016-02-20T06:52:53.265Z,995.47
2016-02-20T06:53:53.267Z,995.51
2016-02-20T06:54:53.256Z,995.51
2016-02-20T06:55:53.258Z,995.44
2016-02-20T06:56:53.261Z,995.44
2016-02-20T06:57:53.247Z,995.44
2016-02-20T06:58:53.250Z,995.37
2016-02-20T06:59:53.238Z,995.42
2016-02-20T07:00:53.240Z,995.38
2016-02-20T07:01:53.243Z,995.32
2016-02-20T07:02:53.246Z,995.28
2016-02-20T07:03:53.232Z,995.24
2016-02-20T07:04:53.235Z,995.2
2016-02-20T07:05:53.222Z,995.2
2016-02-20T07:06:53.224Z,995.2
2016-02-20T07:07:53.212Z,995.15
2016-02-20T07:08:53.214Z,995.11
2016-02-20T07:09:53.202Z,995.09
2016-02-20T07:10:53.204Z,995.17
2016-02-20T07:11:53.206Z,995.08
2016-02-20T07:12:53.194Z,995.05
2016-02-20T07:13:53.196Z,995.08
2016-02-20T07:14:53.199Z,995.03
2016-02-20T07:15:53.187Z,995.07
2016-02-20T07:16:53.173Z,995.06
2016-02-20T07:17:53.176Z,995
2016-02-20T07:18:53.163Z,995
2016-02-20T07:19:53.167Z,994.85
2016-02-20T07:20:53.184Z,994.93
2016-02-20T07:21:53.171Z,995.01
2016-02-20T07:22:53.158Z,995
2016-02-20T07:23:53.145Z,995.02
2016-02-20T07:24:53.164Z,994.99
2016-02-20T07:25:53.136Z,994.98
2016-02-20T07:26:53.138Z,995.05
2016-02-20T07:27:53.141Z,995.04
2016-02-20T07:28:53.127Z,995.06
2016-02-20T07:29:53.131Z,994.96
2016-02-20T07:30:53.117Z,994.96
2016-02-20T07:31:53.119Z,994.91
2016-02-20T07:32:53.122Z,994.93
2016-02-20T07:33:53.110Z,994.91
2016-02-20T07:34:53.113Z,995
2016-02-20T07:35:53.115Z,994.92
2016-02-20T07:36:53.103Z,994.95
2016-02-20T07:37:53.090Z,994.88
2016-02-20T07:38:53.092Z,994.85
2016-02-20T07:39:53.095Z,994.88
2016-02-20T07:40:53.098Z,994.92
2016-02-20T07:41:53.084Z,994.85
2016-02-20T07:42:53.087Z,994.9
2016-02-20T07:43:53.074Z,994.87
2016-02-20T07:44:53.062Z,994.93
2016-02-20T07:45:53.064Z,994.97
2016-02-20T07:46:53.067Z,994.97
2016-02-20T07:47:53.054Z,994.91
2016-02-20T07:48:53.056Z,994.99
2016-02-20T07:49:53.059Z,994.98
2016-02-20T07:50:53.093Z,994.97
2016-02-20T07:51:53.048Z,994.96
2016-02-20T07:52:53.036Z,995.02
2016-02-20T07:53:53.038Z,994.84
2016-02-20T07:54:53.042Z,994.93
2016-02-20T07:55:53.028Z,994.95
2016-02-20T07:56:53.031Z,994.89
2016-02-20T07:57:53.019Z,994.95
2016-02-20T07:58:53.021Z,994.89
2016-02-20T07:59:53.008Z,994.96
2016-02-20T08:00:53.010Z,994.96
2016-02-20T08:01:52.997Z,994.91
2016-02-20T08:02:53.000Z,994.88
2016-02-20T08:03:53.002Z,994.91
2016-02-20T08:04:53.006Z,994.9
2016-02-20T08:05:52.993Z,994.85
2016-02-20T08:06:52.980Z,994.82
2016-02-20T08:07:52.983Z,994.8
2016-02-20T08:08:52.985Z,994.75
2016-02-20T08:09:52.971Z,994.78
2016-02-20T08:10:52.975Z,994.63
2016-02-20T08:11:52.977Z,994.75
2016-02-20T08:12:52.965Z,994.74
2016-02-20T08:13:52.967Z,994.76
2016-02-20T08:14:52.954Z,994.69
2016-02-20T08:15:52.957Z,994.8
2016-02-20T08:16:52.944Z,994.64
2016-02-20T08:17:52.948Z,994.63
2016-02-20T08:18:52.934Z,994.59
2016-02-20T08:19:52.936Z,994.68
2016-02-20T08:20:52.939Z,994.55
2016-02-20T08:21:52.926Z,994.56
2016-02-20T08:22:52.929Z,994.55
2016-02-20T08:23:52.916Z,994.6
2016-02-20T08:24:52.919Z,994.46
2016-02-20T08:25:52.922Z,994.49
2016-02-20T08:26:52.924Z,994.43
2016-02-20T08:27:52.912Z,994.44
2016-02-20T08:28:52.898Z,994.44
2016-02-20T08:29:52.900Z,994.38
2016-02-20T08:30:52.888Z,994.47
2016-02-20T08:31:52.891Z,994.4
2016-02-20T08:32:52.894Z,994.43
2016-02-20T08:33:52.896Z,994.29
2016-02-20T08:34:52.899Z,994.42
2016-02-20T08:35:52.886Z,994.31
2016-02-20T08:36:52.873Z,994.25
2016-02-20T08:37:52.877Z,994.33
2016-02-20T08:38:52.861Z,994.19
2016-02-20T08:39:52.853Z,994.31
2016-02-20T08:40:52.845Z,994.21
2016-02-20T08:41:52.820Z,994.16
2016-02-20T08:42:52.811Z,994.22
2016-02-20T08:43:52.789Z,994.1
2016-02-20T08:44:52.787Z,994.09
2016-02-20T08:45:52.770Z,994.11
2016-02-20T08:46:52.768Z,994.08
2016-02-20T08:47:52.766Z,994.08
2016-02-20T08:48:52.749Z,994.08
2016-02-20T08:49:52.751Z,994.11
2016-02-20T08:50:52.737Z,994.06
2016-02-20T08:51:52.738Z,994.09
2016-02-20T08:52:52.723Z,993.97
2016-02-20T08:53:52.725Z,993.94
2016-02-20T08:54:52.727Z,993.9
2016-02-20T08:55:52.714Z,993.88
2016-02-20T08:56:52.717Z,993.89
2016-02-20T08:57:52.703Z,993.94
2016-02-20T08:58:52.705Z,993.98
2016-02-20T08:59:52.708Z,993.92
2016-02-20T09:00:52.694Z,993.97
2016-02-20T09:01:52.696Z,994.01
2016-02-20T09:02:52.684Z,994.05
2016-02-20T09:03:52.686Z,994.06
2016-02-20T09:04:52.673Z,993.97
2016-02-20T09:05:52.675Z,993.95
2016-02-20T09:06:52.678Z,994.05
2016-02-20T09:07:52.665Z,994.03
2016-02-20T09:08:52.668Z,993.98
2016-02-20T09:09:52.670Z,993.82
2016-02-20T09:10:52.658Z,993.93
2016-02-20T09:11:52.661Z,993.97
2016-02-20T09:12:52.647Z,993.94
2016-02-20T09:13:52.649Z,993.85
2016-02-20T09:14:52.638Z,993.91
2016-02-20T09:15:52.640Z,993.9
2016-02-20T09:16:52.643Z,993.82
2016-02-20T09:17:52.629Z,993.82
2016-02-20T09:18:52.632Z,993.8
2016-02-20T09:19:52.635Z,993.84
2016-02-20T09:20:52.621Z,993.77
2016-02-20T09:21:52.624Z,993.63
2016-02-20T09:22:52.612Z,993.69
2016-02-20T09:23:52.614Z,993.63
2016-02-20T09:24:52.602Z,993.83
2016-02-20T09:25:52.604Z,993.77
2016-02-20T09:26:52.606Z,993.74
2016-02-20T09:27:52.594Z,993.75
2016-02-20T09:28:52.596Z,993.74
2016-02-20T09:29:52.599Z,993.71
2016-02-20T09:30:52.587Z,993.75
2016-02-20T09:31:52.589Z,993.8
2016-02-20T09:32:52.592Z,993.67
2016-02-20T09:33:52.594Z,993.71
2016-02-20T09:34:52.581Z,993.74
2016-02-20T09:35:52.569Z,993.63
2016-02-20T09:36:52.572Z,993.61
2016-02-20T09:37:52.574Z,993.65
2016-02-20T09:38:52.561Z,993.71
2016-02-20T09:39:52.564Z,993.7
2016-02-20T09:40:52.550Z,993.65
2016-02-20T09:41:52.553Z,993.73
2016-02-20T09:42:52.556Z,993.69
2016-02-20T09:43:52.543Z,993.71
2016-02-20T09:44:52.546Z,993.61
2016-02-20T09:45:52.549Z,993.63
2016-02-20T09:46:52.535Z,993.54
2016-02-20T09:47:52.538Z,993.62
2016-02-20T09:48:52.541Z,993.66
2016-02-20T09:49:52.527Z,993.61
2016-02-20T09:50:52.530Z,993.66
2016-02-20T09:51:52.518Z,993.62
2016-02-20T09:52:52.536Z,993.65
2016-02-20T09:53:52.523Z,993.66
2016-02-20T09:54:52.510Z,993.57
2016-02-20T09:55:52.513Z,993.7
2016-02-20T09:56:52.515Z,993.6
2016-02-20T09:57:52.518Z,993.72
2016-02-20T09:58:52.506Z,993.61
2016-02-20T09:59:52.508Z,993.55
2016-02-20T10:00:52.512Z,993.53
2016-02-20T10:01:52.498Z,993.52
2016-02-20T10:02:52.485Z,993.6
2016-02-20T10:03:52.488Z,993.6
2016-02-20T10:04:52.490Z,993.41
2016-02-20T10:05:52.478Z,993.53
2016-02-20T10:06:52.480Z,993.38
2016-02-20T10:07:52.483Z,993.45
2016-02-20T10:08:52.469Z,993.56
2016-02-20T10:09:52.473Z,993.53
2016-02-20T10:10:52.475Z,993.53
2016-02-20T10:11:52.462Z,993.57
2016-02-20T10:12:52.465Z,993.4
2016-02-20T10:13:52.452Z,993.55
2016-02-20T10:14:52.455Z,993.53
2016-02-20T10:15:52.457Z,993.5
2016-02-20T10:16:52.460Z,993.57
2016-02-20T10:17:52.463Z,993.43
2016-02-20T10:18:52.466Z,993.5
2016-02-20T10:19:52.453Z,993.45
2016-02-20T10:20:52.440Z,993.38
2016-02-20T10:21:52.442Z,993.35
2016-02-20T10:22:52.446Z,993.37
2016-02-20T10:23:52.432Z,993.3
2016-02-20T10:24:52.450Z,993.35
2016-02-20T10:25:52.421Z,993.36
2016-02-20T10:26:52.424Z,993.25
2016-02-20T10:27:52.427Z,993.16
2016-02-20T10:28:52.430Z,993.26
2016-02-20T10:29:52.432Z,993.2
2016-02-20T10:30:52.420Z,993.27
2016-02-20T10:31:52.407Z,993.24
2016-02-20T10:32:52.409Z,993.19
2016-02-20T10:33:52.412Z,993.27
2016-02-20T10:34:52.414Z,993.27
2016-02-20T10:35:52.417Z,993.23
2016-02-20T10:36:52.483Z,993.19
2016-02-20T10:37:52.486Z,993.23
2016-02-20T10:38:52.394Z,993.23
2016-02-20T10:39:52.381Z,993.13
2016-02-20T10:40:52.384Z,993.16
2016-02-20T10:41:52.387Z,993.23
2016-02-20T10:42:52.374Z,993.07
2016-02-20T10:43:52.377Z,993.18
2016-02-20T10:44:52.380Z,993.07
2016-02-20T10:45:52.366Z,993.05
2016-02-20T10:46:52.369Z,993.16
2016-02-20T10:47:52.356Z,993.11
2016-02-20T10:48:52.358Z,993.12
2016-02-20T10:49:52.361Z,993.08
2016-02-20T10:50:52.349Z,993.11
2016-02-20T10:51:52.351Z,993.14
2016-02-20T10:52:52.354Z,993.12
2016-02-20T10:53:52.340Z,993.1
2016-02-20T10:54:52.343Z,993.13
2016-02-20T10:55:52.346Z,993.06
2016-02-20T10:56:52.333Z,993.06
2016-02-20T10:57:52.336Z,993.09
2016-02-20T10:58:52.338Z,993.09
2016-02-20T10:59:52.340Z,992.93
2016-02-20T11:00:52.328Z,992.99
2016-02-20T11:01:52.331Z,992.98
2016-02-20T11:02:52.318Z,993.08
2016-02-20T11:03:52.321Z,992.96
2016-02-20T11:04:52.324Z,992.95
2016-02-20T11:05:52.311Z,992.97
2016-02-20T11:06:52.314Z,992.96
2016-02-20T11:07:52.300Z,993.03
2016-02-20T11:08:52.303Z,992.94
2016-02-20T11:09:52.306Z,992.96
2016-02-20T11:10:52.292Z,993
2016-02-20T11:11:52.296Z,992.96
2016-02-20T11:12:52.298Z,993.04
2016-02-20T11:13:52.286Z,992.97
2016-02-20T11:14:52.289Z,992.99
2016-02-20T11:15:52.291Z,992.94
2016-02-20T11:16:52.278Z,992.91
2016-02-20T11:17:52.281Z,993.04
2016-02-20T11:18:52.283Z,992.87
2016-02-20T11:19:52.270Z,993.01
2016-02-20T11:20:52.273Z,993.02
2016-02-20T11:21:52.275Z,992.95
2016-02-20T11:22:52.263Z,992.84
2016-02-20T11:23:52.266Z,992.82
2016-02-20T11:24:52.268Z,992.93
2016-02-20T11:25:52.255Z,992.86
2016-02-20T11:26:52.258Z,992.95
2016-02-20T11:27:52.245Z,992.9
2016-02-20T11:28:52.248Z,992.86
2016-02-20T11:29:52.251Z,992.95
2016-02-20T11:30:52.254Z,992.86
2016-02-20T11:31:52.240Z,992.94
2016-02-20T11:32:52.243Z,992.98
2016-02-20T11:33:52.246Z,992.95
2016-02-20T11:34:52.248Z,992.98
2016-02-20T11:35:52.234Z,992.91
2016-02-20T11:36:52.237Z,992.97
2016-02-20T11:37:52.225Z,993.06
2016-02-20T11:38:52.228Z,993.01
2016-02-20T11:39:52.215Z,992.83
2016-02-20T11:40:52.218Z,992.95
2016-02-20T11:41:52.220Z,992.94
2016-02-20T11:42:52.207Z,992.83
2016-02-20T11:43:52.210Z,992.9
2016-02-20T11:44:52.212Z,992.97
2016-02-20T11:45:52.199Z,992.77
2016-02-20T11:46:52.202Z,992.89
2016-02-20T11:47:52.189Z,992.73
2016-02-20T11:48:52.192Z,992.83
2016-02-20T11:49:52.195Z,992.87
2016-02-20T11:50:52.197Z,992.88
2016-02-20T11:51:52.200Z,992.83
2016-02-20T11:52:52.188Z,992.8
2016-02-20T11:53:52.174Z,992.76
2016-02-20T11:54:52.193Z,992.87
2016-02-20T11:55:52.179Z,992.81
2016-02-20T11:56:52.182Z,992.82
2016-02-20T11:57:52.169Z,992.92
2016-02-20T11:58:52.171Z,992.78
2016-02-20T11:59:52.174Z,992.76
2016-02-20T12:00:52.162Z,992.91
2016-02-20T12:01:52.149Z,992.85
2016-02-20T12:02:52.151Z,992.82
2016-02-20T12:03:52.154Z,992.84
2016-02-20T12:04:52.141Z,992.84
2016-02-20T12:05:52.144Z,992.86
2016-02-20T12:06:52.132Z,992.77
2016-02-20T12:07:52.134Z,992.77
2016-02-20T12:08:52.137Z,992.61
2016-02-20T12:09:52.124Z,992.75
2016-02-20T12:10:52.126Z,992.74
2016-02-20T12:11:52.128Z,992.61
2016-02-20T12:12:52.131Z,992.66
2016-02-20T12:13:52.119Z,992.66
2016-02-20T12:14:52.122Z,992.68
2016-02-20T12:15:52.108Z,992.58
2016-02-20T12:16:52.112Z,992.66
2016-02-20T12:17:52.113Z,992.56
2016-02-20T12:18:52.101Z,992.62
2016-02-20T12:19:52.103Z,992.59
2016-02-20T12:20:52.121Z,992.63
2016-02-20T12:21:52.093Z,992.6
2016-02-20T12:22:52.096Z,992.65
2016-02-20T12:23:52.083Z,992.55
2016-02-20T12:24:52.086Z,992.58
2016-02-20T12:25:52.089Z,992.55
2016-02-20T12:26:52.075Z,992.43
2016-02-20T12:27:52.078Z,992.47
2016-02-20T12:28:52.080Z,992.54
2016-02-20T12:29:52.068Z,992.46
2016-02-20T12:30:52.070Z,992.55
2016-02-20T12:31:52.073Z,992.48